Terminal Aerodrome Forecast
Issued by NWS

Current Version | Previous Version | Text Only | Print | Product List | Glossary On
Versions: 1 2 3 4 5 6 7 8 9 10 11 12
918
FTUS45 KTFX 272330
TAFBZN
TAF
KBZN 272330Z 2800/2824 25006KT P6SM BKN120
     FM280300 16005KT P6SM BKN150
     FM282000 32006KT P6SM SCT090 SCT150=

USA.gov is the U.S. government's official web portal to all federal, state and local government web resources and services.